Time;durP1;ratioP1;P1;durP2;ratioP2;P2;SDS_P1;SDS_P2;PMS_P1;PMS_P2;Temp;Humidity;BMP_temperature;BMP_pressure;BME280_temperature;BME280_humidity;BME280_pressure;Samples;Min_cycle;Max_cycle;Signal;HPM_P1;HPM_P2
2022/06/03 00:01:36;;;;;;;;;12.00;11.00;;;;;16.44;84.44;100012.34;6321076;20;2789855;-52
2022/06/03 00:04:48;;;;;;;;;14.00;13.00;;;;;16.54;84.14;100020.59;6285599;20;3531606;-50
2022/06/03 00:07:28;;;;;;;;;11.00;11.00;;;;;16.51;83.58;100025.38;6319089;20;2791922;-54
2022/06/03 00:10:26;;;;;;;;;10.67;10.67;;;;;16.16;85.15;100021.81;6284569;20;3515973;-52
2022/06/03 00:13:32;;;;;;;;;13.33;13.33;;;;;15.89;86.15;100022.16;6314194;20;2798228;-52
2022/06/03 00:16:32;;;;;;;;;12.67;12.67;;;;;16.26;85.64;100016.53;6316126;20;3539818;-51
2022/06/03 00:20:16;;;;;;;;;14.00;13.00;;;;;15.91;88.33;100014.78;6283186;20;3533603;-49
2022/06/03 00:23:43;;;;;;;;;13.67;12.33;;;;;15.75;91.80;100008.84;6281546;20;3524211;-48
2022/06/03 00:26:41;;;;;;;;;13.67;13.67;;;;;15.64;93.08;100011.47;6283553;20;3531523;-51
2022/06/03 00:29:24;;;;;;;;;13.00;13.00;;;;;15.42;93.35;100013.13;6317022;20;2798167;-49
2022/06/03 00:32:48;;;;;;;;;17.00;14.50;;;;;15.46;92.48;100003.81;6286533;20;2813920;-60
2022/06/03 00:35:43;;;;;;;;;12.00;12.00;;;;;15.58;93.75;100005.53;6290898;20;2798258;-60
2022/06/03 00:38:52;;;;;;;;;13.67;13.67;;;;;15.73;92.26;99999.97;6284948;20;2800317;-60
2022/06/03 00:41:58;;;;;;;;;15.00;13.33;;;;;15.51;92.89;99998.91;6314604;20;3537859;-60
2022/06/03 00:45:08;;;;;;;;;14.00;14.00;;;;;15.45;94.56;100004.78;6316544;20;3535643;-60
2022/06/03 00:48:29;;;;;;;;;18.00;15.00;;;;;15.39;93.61;100010.66;6282168;20;2814832;-60
2022/06/03 00:51:23;;;;;;;;;14.00;14.00;;;;;15.57;93.46;100009.25;6281752;20;3540848;-60
2022/06/03 00:54:56;;;;;;;;;13.00;13.00;;;;;15.15;94.07;100010.69;6281831;20;3523360;-57
2022/06/03 00:57:51;;;;;;;;;15.00;14.00;;;;;15.46;93.58;100011.06;6312564;20;3531480;-54
2022/06/03 01:00:40;;;;;;;;;14.33;14.33;;;;;15.46;92.13;100002.94;6281556;20;3532533;-54
2022/06/03 01:03:47;;;;;;;;;15.33;14.00;;;;;15.48;92.54;100017.19;6309492;20;3536740;-57
2022/06/03 01:06:29;;;;;;;;;14.00;13.50;;;;;15.29;93.75;100012.34;6283181;20;2803378;-57
2022/06/03 01:09:30;;;;;;;;;14.67;12.33;;;;;15.19;95.38;100016.72;6282581;20;3530597;-57
2022/06/03 01:13:12;;;;;;;;;12.40;11.60;;;;;15.35;93.22;100012.75;6337529;20;2806594;-52
2022/06/03 01:16:29;;;;;;;;;11.00;11.00;;;;;15.62;91.81;100021.59;6287373;20;2800271;-53
2022/06/03 01:19:20;;;;;;;;;13.00;13.00;;;;;15.17;93.52;100021.41;6286193;20;2806676;-49
2022/06/03 01:22:44;;;;;;;;;14.00;14.00;;;;;15.07;94.84;100019.38;6282625;20;3539801;-57
2022/06/03 01:25:39;;;;;;;;;12.00;11.67;;;;;15.12;94.39;100021.75;6282872;20;3531597;-57
2022/06/03 01:28:50;;;;;;;;;13.67;13.67;;;;;15.31;93.45;100022.06;6312089;20;3529874;-58
2022/06/03 01:31:52;;;;;;;;;17.67;14.67;;;;;15.01;94.38;100013.53;6280634;20;3542084;-57
2022/06/03 01:35:10;;;;;;;;;14.33;14.33;;;;;15.36;92.79;100021.72;6282957;20;3527387;-50
2022/06/03 01:38:50;;;;;;;;;12.50;11.50;;;;;15.54;91.39;100023.03;6282331;20;2796260;-50
2022/06/03 01:42:09;;;;;;;;;14.00;14.00;;;;;15.39;93.84;100024.19;6280359;20;2496521;-49
2022/06/03 01:45:07;;;;;;;;;18.00;18.00;;;;;15.54;93.27;100024.88;6281989;20;2492803;-60
2022/06/03 01:48:02;;;;;;;;;14.50;14.50;;;;;15.49;92.58;100029.78;6286027;20;2806505;-60
2022/06/03 01:50:54;;;;;;;;;16.00;15.50;;;;;15.75;90.81;100035.91;6283912;20;2812859;-60
2022/06/03 01:54:02;;;;;;;;;16.00;14.67;;;;;15.42;91.54;100036.63;6280112;20;3544019;-59
2022/06/03 01:56:42;;;;;;;;;15.67;14.00;;;;;15.11;94.07;100037.13;6280385;20;3539952;-60
2022/06/03 01:59:55;;;;;;;;;15.00;13.00;;;;;15.59;91.56;100047.91;6314798;20;3527355;-60
2022/06/03 02:03:24;;;;;;;;;15.00;15.00;;;;;15.29;94.21;100040.25;6282918;20;2801390;-60
2022/06/03 02:06:53;;;;;;;;;14.00;14.00;;;;;15.24;93.85;100036.16;6280828;20;2810799;-60
2022/06/03 02:10:29;;;;;;;;;16.00;16.00;;;;;15.27;92.69;100031.41;6277106;20;3434671;-60
2022/06/03 02:13:18;;;;;;;;;15.00;15.00;;;;;15.14;94.00;100034.19;6308633;20;3546065;-60
2022/06/03 02:16:12;;;;;;;;;15.00;15.00;;;;;15.15;93.50;100038.59;6277208;20;3544078;-60
2022/06/03 02:19:17;;;;;;;;;17.33;15.33;;;;;15.29;92.23;100042.09;6275526;20;3545023;-60
2022/06/03 02:22:51;;;;;;;;;16.00;14.00;;;;;15.24;92.68;100038.88;6314157;20;1958604;-60
2022/06/03 02:26:25;;;;;;;;;12.00;12.00;;;;;14.85;94.58;100046.28;6272324;20;3532665;-60
2022/06/03 02:33:15;;;;;;;;;17.00;17.00;;;;;14.82;95.85;100047.34;6310942;20;2483577;-60
2022/06/03 02:36:11;;;;;;;;;15.00;15.00;;;;;14.97;92.72;100060.75;6280899;20;3536832;-60
2022/06/03 02:39:05;;;;;;;;;15.50;13.00;;;;;14.91;92.57;100049.41;6283652;20;2812801;-60
2022/06/03 02:42:24;;;;;;;;;14.67;14.67;;;;;15.22;91.43;100049.81;6277767;20;3535700;-60
2022/06/03 02:45:55;;;;;;;;;13.00;12.00;;;;;15.10;91.85;100057.00;6278656;20;3523281;-60
2022/06/03 02:49:17;;;;;;;;;18.00;17.00;;;;;14.79;94.03;100053.00;6306549;20;3562785;-47
2022/06/03 02:52:41;;;;;;;;;16.33;16.00;;;;;14.77;93.68;100057.69;6279250;20;3559640;-47
2022/06/03 02:55:54;;;;;;;;;16.67;15.33;;;;;14.85;94.01;100063.38;6282138;20;3553406;-49
2022/06/03 02:59:08;;;;;;;;;19.50;16.00;;;;;14.64;93.89;100060.41;6280822;20;2492083;-50
2022/06/03 03:02:17;;;;;;;;;17.00;17.00;;;;;14.93;91.69;100058.25;6281101;20;3562797;-48
2022/06/03 03:05:19;;;;;;;;;17.00;17.00;;;;;14.74;93.72;100067.81;6277812;20;3562802;-55
2022/06/03 03:08:28;;;;;;;;;17.67;15.00;;;;;14.69;92.89;100062.75;6280713;20;3550213;-49
2022/06/03 03:11:39;;;;;;;;;17.00;15.50;;;;;14.44;94.43;100055.53;6279776;20;2483997;-53
2022/06/03 03:14:48;;;;;;;;;17.00;17.00;;;;;14.22;95.57;100054.38;6280238;20;2823173;-48
2022/06/03 03:17:48;;;;;;;;;14.33;14.33;;;;;14.14;97.05;100050.44;6284770;20;3532581;-49
2022/06/03 03:20:29;;;;;;;;;18.00;18.00;;;;;14.55;94.64;100047.53;6306248;20;2483674;-51
2022/06/03 03:23:37;;;;;;;;;19.33;16.00;;;;;14.62;94.18;100051.53;6279408;20;3558544;-53
2022/06/03 03:26:50;;;;;;;;;16.00;16.00;;;;;14.62;94.17;100062.34;6280281;20;2829444;-54
2022/06/03 03:29:52;;;;;;;;;18.00;18.00;;;;;14.66;94.73;100061.13;6284762;20;2833689;-50
2022/06/03 03:33:06;;;;;;;;;17.50;17.00;;;;;14.75;93.93;100058.75;6282375;20;2841921;-57
2022/06/03 03:35:59;;;;;;;;;17.67;16.67;;;;;14.96;92.87;100059.03;6280873;20;2492021;-49
2022/06/03 03:39:20;;;;;;;;;17.50;17.50;;;;;15.10;91.81;100070.53;6314270;20;2825292;-52
2022/06/03 03:42:31;;;;;;;;;17.00;14.00;;;;;15.23;90.88;100066.91;6285193;20;2811733;-49
2022/06/03 03:46:02;;;;;;;;;17.00;17.00;;;;;15.19;91.71;100073.53;6279068;20;2831732;-51
2022/06/03 03:49:18;;;;;;;;;18.00;18.00;;;;;15.30;90.73;100076.31;6284452;20;2498342;-49
2022/06/03 03:52:48;;;;;;;;;19.00;19.00;;;;;15.25;91.32;100083.91;6281711;20;2711739;-49
2022/06/03 03:55:56;;;;;;;;;19.00;17.67;;;;;15.46;89.66;100084.13;6310383;20;2490006;-53
2022/06/03 03:59:05;;;;;;;;;18.00;17.00;;;;;15.65;89.26;100087.16;6317148;20;2825318;-51
2022/06/03 04:02:22;;;;;;;;;18.00;18.00;;;;;15.75;89.58;100087.34;6276523;20;2500382;-50
2022/06/03 04:06:01;;;;;;;;;17.67;17.67;;;;;15.97;87.33;100091.97;6275609;20;3559638;-60
2022/06/03 04:09:27;;;;;;;;;18.00;17.67;;;;;16.24;85.89;100092.53;6276679;20;3560655;-54
2022/06/03 04:12:13;;;;;;;;;14.00;14.00;;;;;16.36;85.70;100098.81;6290721;20;2756567;-54
2022/06/03 04:15:02;;;;;;;;;17.67;17.67;;;;;16.46;86.09;100102.53;6281646;20;2487745;-53
2022/06/03 04:18:04;;;;;;;;;14.00;14.00;;;;;16.50;85.72;100105.84;6315648;20;3527316;-54
2022/06/03 04:21:22;;;;;;;;;17.50;17.00;;;;;17.01;84.01;100107.22;6317955;20;2828072;-52
2022/06/03 04:24:32;;;;;;;;;21.00;19.33;;;;;17.11;85.10;100108.19;6288234;20;2846225;-53
2022/06/03 04:27:55;;;;;;;;;17.50;17.50;;;;;16.93;85.47;100109.69;6318961;20;2832567;-51
2022/06/03 04:31:16;;;;;;;;;15.50;15.00;;;;;17.00;83.90;100113.66;6286734;20;2491963;-51
2022/06/03 04:34:29;;;;;;;;;21.00;20.00;;;;;17.24;82.29;100114.34;6282425;20;2496108;-50
2022/06/03 04:37:34;;;;;;;;;16.00;16.00;;;;;17.37;82.83;100113.31;6286456;20;2496125;-51
2022/06/03 04:40:42;;;;;;;;;19.50;19.00;;;;;17.44;81.28;100119.97;6282217;20;2844642;-50
2022/06/03 04:44:11;;;;;;;;;21.00;18.50;;;;;17.63;81.51;100114.72;6284117;20;2500265;-52
2022/06/03 04:47:35;;;;;;;;;17.50;17.50;;;;;17.84;82.10;100106.63;6284378;20;2810660;-49
2022/06/03 04:51:01;;;;;;;;;22.00;22.00;;;;;17.84;81.99;100111.22;6286601;20;3585826;-52
2022/06/03 04:54:19;;;;;;;;;22.00;21.00;;;;;18.19;81.32;100106.34;6289581;20;2634706;-49
2022/06/03 04:57:54;;;;;;;;;26.33;23.67;;;;;18.51;79.74;100107.22;6285885;20;3599256;-52
2022/06/03 05:01:11;;;;;;;;;21.33;21.33;;;;;18.30;81.01;100118.13;6320320;20;3584635;-52
2022/06/03 05:04:28;;;;;;;;;23.33;21.00;;;;;18.19;81.72;100110.91;6289181;20;3578337;-56
2022/06/03 05:07:36;;;;;;;;;23.00;21.00;;;;;18.74;79.76;100126.94;6284584;20;2848184;-52
2022/06/03 05:10:53;;;;;;;;;26.00;22.33;;;;;18.77;80.39;100132.16;6287749;20;3596105;-53
2022/06/03 05:14:28;;;;;;;;;27.00;22.50;;;;;18.73;79.83;100133.41;6311984;20;2651348;-53
2022/06/03 05:17:29;;;;;;;;;26.33;24.33;;;;;19.39;77.72;100141.97;6315240;20;3586045;-54
2022/06/03 05:20:06;;;;;;;;;21.00;21.00;;;;;19.55;76.92;100144.16;6285019;20;3581527;-53
2022/06/03 05:23:43;;;;;;;;;22.00;22.00;;;;;19.78;74.96;100154.84;6285258;20;3589871;-53
2022/06/03 05:27:13;;;;;;;;;23.00;20.67;;;;;19.92;74.87;100162.56;6286132;20;3572231;-50
2022/06/03 05:30:40;;;;;;;;;21.33;20.33;;;;;20.17;74.67;100161.16;6282113;20;3573156;-48
2022/06/03 05:33:39;;;;;;;;;27.33;24.33;;;;;20.67;74.53;100158.22;6284011;20;3583569;-49
2022/06/03 05:36:58;;;;;;;;;19.00;19.00;;;;;20.59;71.90;100160.84;6285190;20;3565864;-53
2022/06/03 05:39:59;;;;;;;;;21.33;20.67;;;;;20.77;71.77;100169.97;6282872;20;3585693;-51
2022/06/03 05:43:14;;;;;;;;;20.33;20.33;;;;;21.07;70.49;100176.19;6285851;20;3584665;-51
2022/06/03 05:46:46;;;;;;;;;18.00;18.00;;;;;21.48;68.82;100176.72;6287691;20;3573143;-50
2022/06/03 05:50:12;;;;;;;;;22.00;20.33;;;;;21.51;67.44;100176.41;6279832;20;3579449;-53
2022/06/03 05:53:18;;;;;;;;;16.00;16.00;;;;;22.05;66.99;100181.94;6279763;20;2817957;-50
2022/06/03 05:55:51;;;;;;;;;19.00;19.00;;;;;22.06;65.35;100178.19;6283343;20;3572121;-50
2022/06/03 05:58:55;;;;;;;;;18.00;18.00;;;;;22.47;65.14;100171.22;6285578;20;3573173;-50
2022/06/03 06:01:45;;;;;;;;;19.00;16.00;;;;;22.42;62.29;100178.19;6283382;20;3564843;-51
2022/06/03 06:05:11;;;;;;;;;14.00;14.00;;;;;22.41;63.27;100174.59;6282111;20;2802395;-54
2022/06/03 06:08:01;;;;;;;;;17.00;15.00;;;;;22.52;62.02;100178.97;6285853;20;3556501;-50
2022/06/03 06:11:20;;;;;;;;;14.33;13.33;;;;;23.08;60.62;100174.03;6279949;20;3539850;-50
2022/06/03 06:14:37;;;;;;;;;13.67;13.67;;;;;23.11;59.94;100174.56;6282582;20;2483696;-50
2022/06/03 06:18:00;;;;;;;;;12.00;12.00;;;;;23.36;58.41;100178.28;6316174;20;2479560;-53
2022/06/03 06:20:57;;;;;;;;;16.33;16.00;;;;;23.55;56.87;100176.28;6312500;20;3560629;-48
2022/06/03 06:23:45;;;;;;;;;18.00;15.00;;;;;23.89;56.01;100178.97;6284213;20;2820093;-52
2022/06/03 06:26:47;;;;;;;;;11.33;11.33;;;;;24.34;54.38;100174.03;6283176;20;2483649;-52
2022/06/03 06:29:37;;;;;;;;;12.00;12.00;;;;;24.38;53.08;100183.63;6314721;20;3529428;-50
2022/06/03 06:32:35;;;;;;;;;9.67;9.67;;;;;24.04;53.97;100176.41;6285754;20;3492984;-53
2022/06/03 06:35:59;;;;;;;;;5.33;5.33;;;;;24.81;50.46;100178.84;6318302;20;2735713;-50
2022/06/03 06:39:10;;;;;;;;;13.67;13.67;;;;;24.67;52.17;100183.13;6313962;20;3528476;-49
2022/06/03 06:42:22;;;;;;;;;14.00;13.00;;;;;25.07;51.55;100184.94;6282866;20;2795138;-52
2022/06/03 06:45:22;;;;;;;;;12.00;12.00;;;;;24.74;51.90;100190.50;6285647;20;3529633;-54
2022/06/03 06:48:16;;;;;;;;;14.00;14.00;;;;;25.57;51.46;100181.00;6287234;20;2800251;-53
2022/06/03 06:51:25;;;;;;;;;10.00;10.00;;;;;24.93;50.66;100177.41;6337145;20;2794039;-56
2022/06/03 06:54:18;;;;;;;;;14.00;14.00;;;;;25.73;49.92;100184.72;6284378;20;3529547;-55
2022/06/03 06:57:12;;;;;;;;;12.67;12.67;;;;;26.00;50.37;100186.97;6283258;20;2483611;-55
2022/06/03 07:00:05;;;;;;;;;14.00;14.00;;;;;26.20;49.48;100181.84;6315045;20;2810768;-54
2022/06/03 07:02:50;;;;;;;;;13.67;12.33;;;;;26.71;49.04;100184.00;6284146;20;3518987;-52
2022/06/03 07:05:54;;;;;;;;;16.00;15.00;;;;;26.59;49.75;100183.59;6283529;20;2819086;-51
2022/06/03 07:08:50;;;;;;;;;14.33;14.33;;;;;27.02;49.34;100174.75;6286535;20;2483595;-53
2022/06/03 07:11:43;;;;;;;;;13.67;13.67;;;;;26.81;49.25;100169.97;6311385;20;3534597;-52
2022/06/03 07:14:21;;;;;;;;;15.67;15.67;;;;;27.57;47.69;100177.00;6318123;20;3551312;-50
2022/06/03 07:20:21;;;;;;;;;13.33;12.00;;;;;27.49;44.94;100179.00;6312562;20;3526259;-48
2022/06/03 07:23:07;;;;;;;;;10.00;10.00;;;;;27.29;44.81;100179.59;6282399;20;2790030;-52
2022/06/03 07:25:43;;;;;;;;;13.33;13.33;;;;;27.88;43.10;100186.09;6316653;20;3539889;-55
2022/06/03 07:28:26;;;;;;;;;11.00;11.00;;;;;27.87;43.79;100170.59;6314580;20;3535757;-54
2022/06/03 07:31:22;;;;;;;;;8.67;8.00;;;;;27.66;42.23;100165.84;6278762;20;3465893;-56
2022/06/03 07:33:59;;;;;;;;;11.33;11.33;;;;;27.94;44.05;100164.09;6321460;20;3525359;-54
2022/06/03 07:36:39;;;;;;;;;10.00;10.00;;;;;27.52;42.25;100173.97;6315862;20;2483580;-56
2022/06/03 07:39:43;;;;;;;;;12.00;12.00;;;;;27.84;42.38;100173.75;6314975;20;2483724;-51
2022/06/03 07:42:24;;;;;;;;;12.00;9.00;;;;;28.09;41.95;100172.28;6314016;20;3489939;-51
2022/06/03 07:45:36;;;;;;;;;11.00;11.00;;;;;27.73;42.44;100167.66;6317661;20;2483620;-56
2022/06/03 07:48:13;;;;;;;;;14.00;12.00;;;;;27.57;43.67;100167.88;6314872;20;3532574;-51
2022/06/03 07:51:09;;;;;;;;;14.00;11.33;;;;;27.73;40.99;100166.78;6284614;20;2800329;-50
2022/06/03 07:53:50;;;;;;;;;9.00;9.00;;;;;27.61;41.43;100173.84;6315631;20;2738879;-49
2022/06/03 07:56:24;;;;;;;;;8.00;8.00;;;;;27.56;40.45;100179.94;6315339;20;2750254;-48
2022/06/03 07:59:13;;;;;;;;;9.33;9.00;;;;;27.47;40.77;100173.69;6314022;20;2753389;-48
2022/06/03 08:01:56;;;;;;;;;11.00;10.00;;;;;28.28;39.71;100170.81;6316853;20;2785699;-52
2022/06/03 08:04:35;;;;;;;;;10.00;10.00;;;;;28.38;40.37;100178.72;6315326;20;3512759;-48
2022/06/03 08:13:06;;;;;;;;;11.33;11.00;;;;;28.23;42.35;100178.84;6321579;20;3513909;-49
2022/06/03 08:16:00;;;;;;;;;9.33;9.33;;;;;27.98;40.89;100173.66;6327882;20;2746622;-53
2022/06/03 08:18:43;;;;;;;;;9.33;9.33;;;;;28.99;41.00;100184.59;6324977;20;2760672;-50
2022/06/03 08:21:25;;;;;;;;;10.00;10.00;;;;;28.45;40.36;100176.94;6320027;20;3513756;-51
2022/06/03 08:23:56;;;;;;;;;10.67;10.67;;;;;28.96;40.83;100181.34;6320747;20;3519018;-54
2022/06/03 08:26:28;;;;;;;;;10.00;10.00;;;;;28.73;40.83;100174.19;6321268;20;2789911;-48
2022/06/03 08:29:43;;;;;;;;;9.33;9.33;;;;;28.59;41.10;100180.66;6317917;20;2759737;-48
2022/06/03 08:32:31;;;;;;;;;10.67;10.67;;;;;28.66;42.05;100179.66;6320763;20;3512764;-50
2022/06/03 08:35:07;;;;;;;;;10.00;10.00;;;;;29.03;38.58;100180.34;6319859;20;3502301;-52
2022/06/03 08:38:33;;;;;;;;;10.33;9.00;;;;;29.00;39.30;100169.69;6314473;20;3497245;-52
2022/06/03 08:41:48;;;;;;;;;10.00;9.00;;;;;29.22;39.73;100173.25;6313413;20;3496075;-56
2022/06/03 08:45:13;;;;;;;;;9.00;9.00;;;;;29.29;39.72;100178.84;6319600;20;2760700;-57
2022/06/03 08:47:59;;;;;;;;;9.50;9.50;;;;;28.81;39.51;100176.81;6317658;20;2762876;-54
2022/06/03 08:50:46;;;;;;;;;11.00;10.00;;;;;29.84;39.19;100182.50;6314433;20;3509631;-49
2022/06/03 08:53:59;;;;;;;;;11.33;11.33;;;;;29.60;39.36;100169.19;6319453;20;3529398;-54
2022/06/03 08:56:37;;;;;;;;;11.67;11.67;;;;;29.21;38.79;100177.09;6315128;20;3519405;-55
2022/06/03 08:59:28;;;;;;;;;11.00;11.00;;;;;29.49;39.01;100173.38;6287155;20;2483611;-54
2022/06/03 09:02:30;;;;;;;;;11.33;8.67;;;;;29.53;38.91;100164.47;6316450;20;3482607;-57
2022/06/03 09:05:29;;;;;;;;;10.67;10.67;;;;;30.14;39.79;100160.00;6314539;20;2788822;-56
2022/06/03 09:08:25;;;;;;;;;11.33;10.67;;;;;30.04;40.86;100167.84;6316271;20;3532641;-53
2022/06/03 09:11:26;;;;;;;;;10.67;10.00;;;;;29.40;40.37;100164.41;6315384;20;3513879;-57
2022/06/03 09:14:06;;;;;;;;;12.33;10.00;;;;;30.15;39.05;100167.25;6316255;20;3504439;-53
2022/06/03 09:16:38;;;;;;;;;6.33;5.00;;;;;29.07;38.45;100165.09;6321523;20;2737751;-55
2022/06/03 09:19:30;;;;;;;;;9.00;9.00;;;;;29.61;38.13;100170.91;6316528;20;2763229;-55
2022/06/03 09:22:11;;;;;;;;;8.67;8.67;;;;;30.01;38.47;100166.34;6315531;20;3467931;-55
2022/06/03 09:24:44;;;;;;;;;9.67;9.67;;;;;29.47;38.27;100148.69;6311886;20;3489954;-55
2022/06/03 09:27:16;;;;;;;;;6.00;6.00;;;;;29.88;38.09;100166.31;6320979;20;2744015;-59
2022/06/03 09:29:51;;;;;;;;;9.00;9.00;;;;;30.30;36.79;100164.31;6324610;20;2757670;-58
2022/06/03 09:32:24;;;;;;;;;8.33;7.00;;;;;29.93;36.89;100164.63;6314075;20;2731596;-59
2022/06/03 09:35:19;;;;;;;;;10.00;10.00;;;;;30.24;37.33;100157.69;6317674;20;3512757;-58
2022/06/03 09:37:55;;;;;;;;;7.67;7.67;;;;;30.32;37.08;100162.19;6290647;20;2744167;-59
2022/06/03 09:40:41;;;;;;;;;9.33;9.33;;;;;29.94;36.52;100154.44;6309481;20;3488929;-58
2022/06/03 09:43:23;;;;;;;;;11.67;9.00;;;;;29.60;37.57;100152.59;6313783;20;2778483;-59
2022/06/03 09:45:56;;;;;;;;;8.33;8.33;;;;;29.61;35.79;100157.91;6319855;20;2746120;-58
2022/06/03 09:48:31;;;;;;;;;7.67;7.67;;;;;30.28;36.42;100160.88;6320686;20;2741941;-59
2022/06/03 09:54:34;;;;;;;;;8.33;8.33;;;;;30.27;36.32;100154.50;6319662;20;2746124;-61
2022/06/03 09:57:15;;;;;;;;;7.67;7.67;;;;;29.87;35.48;100159.94;6311697;20;2754472;-61
2022/06/03 10:00:03;;;;;;;;;8.67;7.33;;;;;30.74;34.95;100154.50;6316175;20;2744009;-61
2022/06/03 10:02:32;;;;;;;;;6.00;6.00;;;;;30.46;32.45;100157.47;6320393;20;2736744;-60
2022/06/03 10:05:05;;;;;;;;;8.00;7.00;;;;;30.13;34.34;100150.84;6342921;20;2754416;-61
2022/06/03 10:07:35;;;;;;;;;8.00;8.00;;;;;30.14;33.44;100148.91;6287701;20;2739957;-61
2022/06/03 10:12:58;;;;;;;;;9.00;9.00;;;;;30.84;33.26;100161.34;6315940;20;2753430;-59
2022/06/03 10:15:43;;;;;;;;;8.00;8.00;;;;;30.67;34.66;100159.19;6315754;20;2752340;-61
2022/06/03 10:18:49;;;;;;;;;6.00;6.00;;;;;30.44;33.91;100151.28;6314344;20;2742469;-61
2022/06/03 10:21:17;;;;;;;;;6.00;6.00;;;;;30.00;32.53;100153.56;6313824;20;2741954;-61
2022/06/03 10:23:55;;;;;;;;;4.00;4.00;;;;;30.45;32.06;100158.56;6327612;20;2744015;-61
2022/06/03 10:26:50;;;;;;;;;9.00;9.00;;;;;31.10;33.52;100150.38;6319609;20;2746148;-60
2022/06/03 10:29:26;;;;;;;;;7.00;7.00;;;;;30.55;33.05;100159.00;6326619;20;2746238;-60
2022/06/03 10:32:10;;;;;;;;;7.67;7.67;;;;;30.31;34.33;100161.31;6316794;20;2756636;-61
2022/06/03 10:34:42;;;;;;;;;11.33;9.00;;;;;30.20;34.39;100161.91;6312445;20;2775289;-60
2022/06/03 10:37:24;;;;;;;;;8.00;8.00;;;;;30.55;34.66;100156.22;6324528;20;2756526;-60
2022/06/03 10:39:56;;;;;;;;;7.00;7.00;;;;;31.14;31.46;100160.00;6316197;20;2741917;-61
2022/06/03 10:42:25;;;;;;;;;4.00;4.00;;;;;30.99;32.19;100158.34;6318772;20;2745144;-60
2022/06/03 10:44:59;;;;;;;;;7.00;7.00;;;;;30.57;33.88;100160.50;6318958;20;2746119;-61
2022/06/03 10:47:43;;;;;;;;;9.00;8.00;;;;;30.40;32.55;100157.28;6316726;20;2766956;-61
2022/06/03 10:50:55;;;;;;;;;8.33;8.33;;;;;30.52;33.03;100153.88;6323456;20;2752443;-62
2022/06/03 11:02:01;;;;;;;;;8.00;7.00;;;;;30.55;33.31;100134.03;6324401;20;2748205;-60
2022/06/03 11:04:39;;;;;;;;;8.00;8.00;;;;;30.89;34.22;100140.44;6317839;20;2744124;-61
2022/06/03 11:07:30;;;;;;;;;9.67;8.00;;;;;30.95;33.10;100137.63;6323388;20;2757588;-61
2022/06/03 11:10:13;;;;;;;;;5.00;5.00;;;;;31.04;32.94;100139.13;6317882;20;2737768;-61
2022/06/03 11:13:06;;;;;;;;;7.00;7.00;;;;;31.03;33.98;100128.22;6324397;20;2743009;-60
2022/06/03 11:15:40;;;;;;;;;8.00;8.00;;;;;30.93;35.62;100125.91;6325587;20;2750245;-61
2022/06/03 11:18:32;;;;;;;;;7.33;7.33;;;;;30.99;33.79;100124.19;6317037;20;2735707;-60
2022/06/03 11:21:24;;;;;;;;;8.00;8.00;;;;;31.08;33.70;100113.72;6322286;20;2744130;-60
2022/06/03 11:23:59;;;;;;;;;7.67;7.67;;;;;31.74;32.37;100110.66;6315577;20;2754416;-60
2022/06/03 11:26:43;;;;;;;;;9.33;7.33;;;;;31.37;32.61;100104.88;6322233;20;2743011;-60
2022/06/03 11:29:32;;;;;;;;;7.33;6.67;;;;;31.31;32.24;100096.53;6313147;20;2748288;-60
2022/06/03 11:32:05;;;;;;;;;8.67;8.67;;;;;31.61;33.24;100105.19;6312803;20;2754418;-61
2022/06/03 11:34:45;;;;;;;;;7.00;7.00;;;;;31.66;34.21;100097.91;6322510;20;2748191;-61
2022/06/03 11:37:31;;;;;;;;;9.67;7.67;;;;;31.38;33.39;100089.91;6311849;20;2765879;-61
2022/06/03 11:40:26;;;;;;;;;5.20;5.20;;;;;31.65;33.20;100096.19;6336849;20;2736760;-61
2022/06/03 11:43:12;;;;;;;;;7.33;6.67;;;;;31.43;32.42;100097.59;6283562;20;2736794;-61
2022/06/03 11:45:59;;;;;;;;;5.00;5.00;;;;;31.32;32.22;100089.94;6314959;20;2743041;-60
2022/06/03 11:48:38;;;;;;;;;6.67;6.33;;;;;31.52;32.44;100090.72;6317763;20;2748307;-61
2022/06/03 11:51:09;;;;;;;;;7.00;7.00;;;;;30.74;32.22;100082.41;6318282;20;2754479;-60
2022/06/03 11:53:49;;;;;;;;;6.67;6.67;;;;;31.04;32.65;100082.78;6319229;20;2746169;-60
2022/06/03 11:56:26;;;;;;;;;7.00;7.00;;;;;31.46;34.13;100080.50;6322126;20;2748288;-60
2022/06/03 11:59:15;;;;;;;;;9.67;8.00;;;;;31.47;32.92;100071.09;6320210;20;2765914;-61
2022/06/03 12:01:49;;;;;;;;;7.00;7.00;;;;;31.44;32.36;100066.84;6326812;20;2738791;-61
2022/06/03 12:04:48;;;;;;;;;9.00;9.00;;;;;31.38;33.41;100061.31;6318872;20;3484736;-61
2022/06/03 12:08:14;;;;;;;;;6.67;6.00;;;;;31.49;32.18;100064.25;6321178;20;2748222;-62
2022/06/03 12:11:09;;;;;;;;;6.67;6.67;;;;;31.45;31.11;100062.16;6318634;20;2735672;-56
2022/06/03 12:13:37;;;;;;;;;7.00;5.33;;;;;31.05;31.51;100057.59;6321610;20;2743441;-52
2022/06/03 12:16:15;;;;;;;;;6.00;6.00;;;;;30.88;31.89;100053.59;6329308;20;2736843;-55
2022/06/03 12:19:03;;;;;;;;;5.00;5.00;;;;;30.69;33.00;100047.00;6319618;20;2737815;-53
2022/06/03 12:21:31;;;;;;;;;6.00;6.00;;;;;30.35;33.16;100039.84;6322729;20;2734629;-56
2022/06/03 12:24:32;;;;;;;;;5.33;5.33;;;;;30.83;33.34;100039.53;6321810;20;2742036;-54
2022/06/03 12:27:04;;;;;;;;;8.67;7.00;;;;;31.27;33.08;100038.72;6324581;20;2750689;-54
2022/06/03 12:29:50;;;;;;;;;8.33;7.67;;;;;31.08;34.39;100039.66;6321010;20;2750262;-57
2022/06/03 12:32:30;;;;;;;;;7.33;7.33;;;;;30.87;33.68;100037.19;6317353;20;2753447;-53
2022/06/03 12:35:52;;;;;;;;;7.67;7.00;;;;;30.70;33.94;100026.56;6318598;20;2750269;-55
2022/06/03 12:38:23;;;;;;;;;6.50;6.50;;;;;31.23;32.28;100022.75;6321182;20;2619012;-55
2022/06/03 12:41:00;;;;;;;;;6.20;5.00;;;;;30.96;31.41;100024.78;6345034;20;2734674;-59
2022/06/03 12:43:29;;;;;;;;;6.00;6.00;;;;;30.88;32.46;100022.25;6296930;20;2742029;-58
2022/06/03 12:46:41;;;;;;;;;6.00;6.00;;;;;31.10;33.36;100014.47;6321378;20;2734658;-59
2022/06/03 12:49:32;;;;;;;;;9.00;9.00;;;;;31.57;32.13;100004.84;6319992;20;2754473;-59
2022/06/03 12:52:12;;;;;;;;;6.67;6.67;;;;;31.05;31.95;100009.59;6319448;20;2744051;-58
2022/06/03 12:54:56;;;;;;;;;5.67;5.67;;;;;31.10;32.43;99998.69;6321037;20;2724352;-59
2022/06/03 12:58:24;;;;;;;;;7.00;7.00;;;;;30.94;32.29;99982.53;6317484;20;2752431;-59
2022/06/03 13:00:57;;;;;;;;;6.00;6.00;;;;;31.08;32.97;99984.19;6318644;20;2740897;-58
2022/06/03 13:03:26;;;;;;;;;11.00;7.00;;;;;31.03;32.29;99975.69;6315318;20;2769132;-59
2022/06/03 13:05:59;;;;;;;;;8.00;6.67;;;;;31.18;32.91;99981.78;6321174;20;2743992;-56
2022/06/03 13:08:33;;;;;;;;;7.67;6.67;;;;;31.33;31.69;99980.63;6319233;20;2750243;-53
2022/06/03 13:11:23;;;;;;;;;3.60;3.60;;;;;31.51;32.84;99977.97;6343235;20;2756488;-61
2022/06/03 13:14:26;;;;;;;;;5.00;5.00;;;;;31.39;32.42;99977.00;6293081;20;2743039;-61
2022/06/03 13:16:55;;;;;;;;;5.67;5.67;;;;;31.59;33.79;99974.06;6321362;20;2748163;-59
2022/06/03 13:19:23;;;;;;;;;7.00;7.00;;;;;31.02;34.02;99979.53;6319962;20;2734651;-58
2022/06/03 13:22:02;;;;;;;;;8.00;8.00;;;;;30.95;34.60;99975.94;6326724;20;2756552;-58
2022/06/03 13:24:35;;;;;;;;;6.00;6.00;;;;;30.53;35.08;99964.34;6318354;20;2742952;-53
2022/06/03 13:27:23;;;;;;;;;7.00;7.00;;;;;30.78;34.89;99964.44;6318010;20;2752327;-55
2022/06/03 13:29:52;;;;;;;;;7.00;6.33;;;;;30.54;32.97;99957.72;6320369;20;2734659;-55
2022/06/03 13:32:36;;;;;;;;;7.67;5.67;;;;;30.84;34.02;99960.84;6321483;20;2736798;-60
2022/06/03 13:36:00;;;;;;;;;8.00;8.00;;;;;30.80;33.02;99962.31;6322098;20;2748330;-60
2022/06/03 13:38:47;;;;;;;;;7.00;7.00;;;;;31.04;33.92;99956.06;6318906;20;2741978;-60
2022/06/03 13:44:19;;;;;;;;;8.00;7.00;;;;;30.81;32.03;99955.75;6321814;20;2733604;-61